Time;durP1;ratioP1;P1;durP2;ratioP2;P2;SDS_P1;SDS_P2;PMS_P1;PMS_P2;Temp;Humidity;BMP_temperature;BMP_pressure;BME280_temperature;BME280_humidity;BME280_pressure;Samples;Min_cycle;Max_cycle;Signal;HPM_P1;HPM_P2
2022/02/15 00:00:23;;;;;;;2.63;1.10;;;17.20;52.80;;;;;;5055033;28;20163;-61
2022/02/15 00:02:49;;;;;;;1.52;0.90;;;17.20;52.90;;;;;;5055230;28;20178;-61
2022/02/15 00:05:14;;;;;;;2.33;1.35;;;17.20;52.90;;;;;;5053863;28;20179;-61
2022/02/15 00:07:40;;;;;;;2.03;1.15;;;17.10;52.80;;;;;;5055012;28;20178;-62
2022/02/15 00:10:08;;;;;;;1.00;0.90;;;17.10;52.90;;;;;;5054639;28;20255;-62
2022/02/15 00:12:36;;;;;;;1.48;0.98;;;17.10;52.90;;;;;;5054109;28;20228;-64
2022/02/15 00:15:03;;;;;;;0.82;0.80;;;17.10;52.90;;;;;;5054454;28;20228;-63
2022/02/15 00:17:28;;;;;;;2.35;0.80;;;17.10;53.00;;;;;;5054895;28;20179;-64
2022/02/15 00:19:54;;;;;;;1.60;1.02;;;17.10;52.90;;;;;;5053801;28;20182;-63
2022/02/15 00:22:19;;;;;;;1.35;0.75;;;17.10;53.00;;;;;;5054760;28;20178;-62
2022/02/15 00:24:45;;;;;;;1.83;0.80;;;17.10;52.90;;;;;;5054713;28;20167;-62
2022/02/15 00:27:10;;;;;;;1.00;0.80;;;17.10;52.90;;;;;;5053515;28;20214;-62
2022/02/15 00:29:36;;;;;;;1.60;1.00;;;17.10;52.80;;;;;;5054551;28;20702;-61
2022/02/15 00:32:01;;;;;;;1.30;0.82;;;17.10;52.90;;;;;;5054356;28;20206;-61
2022/02/15 00:34:27;;;;;;;1.58;0.90;;;17.00;52.90;;;;;;5053880;28;20182;-62
2022/02/15 00:36:52;;;;;;;1.23;0.85;;;17.00;53.00;;;;;;5054501;28;20236;-61
2022/02/15 00:39:18;;;;;;;1.23;0.90;;;17.00;52.90;;;;;;5054331;28;20657;-61
2022/02/15 00:41:43;;;;;;;1.33;1.00;;;17.00;52.90;;;;;;5053604;28;20186;-62
2022/02/15 00:44:09;;;;;;;2.30;1.02;;;17.00;52.90;;;;;;5053917;28;20221;-61
2022/02/15 00:46:34;;;;;;;1.50;1.00;;;17.00;52.90;;;;;;5054307;28;20214;-62
2022/02/15 00:49:00;;;;;;;0.90;0.90;;;17.00;52.90;;;;;;5053173;28;20221;-62
2022/02/15 00:51:25;;;;;;;0.93;0.70;;;17.00;52.90;;;;;;5054140;28;20218;-63
2022/02/15 00:53:51;;;;;;;1.08;0.93;;;17.00;53.50;;;;;;5053459;28;20188;-63
2022/02/15 00:56:16;;;;;;;2.78;1.35;;;17.00;52.90;;;;;;5053618;28;20254;-63
2022/02/15 00:58:42;;;;;;;1.33;1.20;;;17.00;52.90;;;;;;5054135;28;20265;-64
2022/02/15 01:01:07;;;;;;;1.05;0.80;;;17.00;52.90;;;;;;5053129;28;20854;-61
2022/02/15 01:03:33;;;;;;;1.70;0.82;;;17.00;52.90;;;;;;5054027;28;20679;-61
2022/02/15 01:06:01;;;;;;;1.02;0.70;;;17.00;52.90;;;;;;5053143;28;20210;-62
2022/02/15 01:08:27;;;;;;;1.10;1.00;;;17.00;52.90;;;;;;5053364;28;20175;-61
2022/02/15 01:10:52;;;;;;;1.33;0.95;;;16.90;52.90;;;;;;5053657;28;20651;-64
2022/02/15 01:13:18;;;;;;;2.45;1.10;;;16.90;52.90;;;;;;5053926;28;20237;-63
2022/02/15 01:15:43;;;;;;;1.02;0.93;;;16.90;52.90;;;;;;5053165;28;20220;-64
2022/02/15 01:18:09;;;;;;;1.10;0.85;;;16.90;52.80;;;;;;5053458;28;20529;-63
2022/02/15 01:20:34;;;;;;;1.00;0.90;;;16.90;52.80;;;;;;5053797;28;20190;-62
2022/02/15 01:23:00;;;;;;;1.80;0.93;;;16.90;52.90;;;;;;5052623;28;20224;-62
2022/02/15 01:25:26;;;;;;;1.63;1.02;;;16.90;52.80;;;;;;5053442;28;20206;-61
2022/02/15 01:27:53;;;;;;;0.75;0.75;;;16.90;52.80;;;;;;5053393;28;20193;-62
2022/02/15 01:30:18;;;;;;;1.92;1.05;;;16.90;52.80;;;;;;5052897;28;20175;-60
2022/02/15 01:32:44;;;;;;;0.93;0.70;;;16.80;52.70;;;;;;5053619;28;20200;-61
2022/02/15 01:35:09;;;;;;;0.98;0.90;;;16.90;52.90;;;;;;5053104;28;20206;-61
2022/02/15 01:37:35;;;;;;;1.23;0.93;;;16.90;52.80;;;;;;5052483;28;20175;-61
2022/02/15 01:40:00;;;;;;;1.58;0.85;;;16.90;52.80;;;;;;5052951;28;20167;-62
2022/02/15 01:42:26;;;;;;;0.70;0.70;;;16.80;52.60;;;;;;5053193;28;20658;-61
2022/02/15 01:44:51;;;;;;;0.57;0.57;;;16.80;52.70;;;;;;5052482;28;20171;-62
2022/02/15 01:47:25;;;;;;;1.85;1.00;;;16.80;52.80;;;;;;5052679;28;20685;-61
2022/02/15 01:49:50;;;;;;;1.33;0.90;;;16.80;52.80;;;;;;5053296;28;20189;-61
2022/02/15 01:52:18;;;;;;;1.42;1.20;;;16.80;52.80;;;;;;5052062;28;20167;-62
2022/02/15 01:54:43;;;;;;;1.17;0.70;;;16.80;52.70;;;;;;5052751;28;20237;-62
2022/02/15 01:57:09;;;;;;;6.63;1.42;;;16.80;52.80;;;;;;5052247;28;20179;-61
2022/02/15 01:59:34;;;;;;;1.63;1.15;;;16.80;52.80;;;;;;5035415;28;20175;-61
2022/02/15 02:02:00;;;;;;;2.05;1.00;;;16.80;52.80;;;;;;5052749;28;20179;-61
2022/02/15 02:07:09;;;;;;;0.85;0.80;;;16.80;52.80;;;;;;5052655;28;20245;-61
2022/02/15 02:09:35;;;;;;;1.23;0.95;;;16.70;52.70;;;;;;5052918;28;20195;-62
2022/02/15 02:12:00;;;;;;;1.08;0.90;;;16.70;52.60;;;;;;5051694;28;20274;-63
2022/02/15 02:14:26;;;;;;;1.33;1.10;;;16.70;52.60;;;;;;5018595;28;20660;-64
2022/02/15 02:16:51;;;;;;;1.80;1.00;;;16.70;52.70;;;;;;5052054;28;20187;-64
2022/02/15 02:19:17;;;;;;;2.00;1.00;;;16.70;52.70;;;;;;5051750;28;20171;-63
2022/02/15 02:21:42;;;;;;;0.95;0.88;;;16.70;52.70;;;;;;5052552;28;20249;-63
2022/02/15 02:24:08;;;;;;;0.88;0.85;;;16.70;52.70;;;;;;5052356;28;20649;-62
2022/02/15 02:26:33;;;;;;;1.55;1.05;;;16.70;52.70;;;;;;5052053;28;20213;-62
2022/02/15 02:28:59;;;;;;;1.05;0.90;;;16.70;52.70;;;;;;5052552;28;20573;-61
2022/02/15 02:31:24;;;;;;;1.05;0.95;;;16.70;52.80;;;;;;5052698;28;20198;-60
2022/02/15 02:33:51;;;;;;;1.10;0.90;;;16.70;52.70;;;;;;5051813;28;20175;-61
2022/02/15 02:36:16;;;;;;;0.90;0.88;;;16.70;52.80;;;;;;5052219;28;20183;-61
2022/02/15 02:38:42;;;;;;;1.35;1.00;;;16.70;52.80;;;;;;5052571;28;20198;-63
2022/02/15 02:41:07;;;;;;;1.80;1.02;;;16.70;52.70;;;;;;5051697;28;20199;-62
2022/02/15 02:43:33;;;;;;;1.05;1.00;;;16.70;52.80;;;;;;5052533;28;20175;-61
2022/02/15 02:45:58;;;;;;;1.92;1.10;;;16.70;52.70;;;;;;5052081;28;20206;-61
2022/02/15 02:48:24;;;;;;;0.93;0.80;;;16.70;52.70;;;;;;5051733;28;20179;-61
2022/02/15 02:50:50;;;;;;;1.25;0.90;;;16.60;52.70;;;;;;5052469;28;20171;-62
2022/02/15 02:53:18;;;;;;;1.08;1.00;;;16.60;52.70;;;;;;5052017;28;20163;-62
2022/02/15 02:55:43;;;;;;;0.93;0.80;;;16.60;52.70;;;;;;5053743;28;20705;-63
2022/02/15 02:58:09;;;;;;;1.17;1.00;;;16.60;52.70;;;;;;5052234;28;20194;-62
2022/02/15 03:00:35;;;;;;;1.58;1.10;;;16.60;52.70;;;;;;5051688;28;20187;-61
2022/02/15 03:03:07;;;;;;;0.93;0.75;;;16.60;52.70;;;;;;5052081;28;20174;-61
2022/02/15 03:05:33;;;;;;;2.10;0.95;;;16.60;52.70;;;;;;5052167;28;20230;-61
2022/02/15 03:07:58;;;;;;;1.52;1.27;;;16.60;52.70;;;;;;5051123;28;20653;-61
2022/02/15 03:10:24;;;;;;;1.38;0.70;;;16.60;52.70;;;;;;5052456;28;20172;-64
2022/02/15 03:12:49;;;;;;;2.20;0.80;;;16.60;52.70;;;;;;5052249;28;20183;-63
2022/02/15 03:15:15;;;;;;;0.70;0.70;;;16.60;52.70;;;;;;5051290;28;20168;-64
2022/02/15 03:17:40;;;;;;;1.88;0.95;;;16.60;52.70;;;;;;5052288;28;20200;-64
2022/02/15 03:20:06;;;;;;;2.15;1.17;;;16.60;52.70;;;;;;5051895;28;20630;-63
2022/02/15 03:22:31;;;;;;;1.90;0.95;;;16.60;52.70;;;;;;5051145;28;20278;-62
2022/02/15 03:24:57;;;;;;;0.80;0.77;;;16.60;52.70;;;;;;5050700;28;20175;-63
2022/02/15 03:27:22;;;;;;;0.98;0.82;;;16.50;52.60;;;;;;5051121;28;20593;-61
2022/02/15 03:29:48;;;;;;;0.90;0.75;;;16.50;52.60;;;;;;5054066;28;20167;-61
2022/02/15 03:32:13;;;;;;;1.30;0.95;;;16.50;52.70;;;;;;5054540;28;20650;-61
2022/02/15 03:34:39;;;;;;;1.95;0.80;;;16.50;52.70;;;;;;5054472;28;20182;-61
2022/02/15 03:37:04;;;;;;;1.80;0.90;;;16.50;52.70;;;;;;5053491;28;20183;-61
2022/02/15 03:39:30;;;;;;;0.88;0.77;;;16.50;52.70;;;;;;5054711;28;20175;-62
2022/02/15 03:44:40;;;;;;;0.70;0.70;;;16.50;52.70;;;;;;5053935;28;20635;-62
2022/02/15 03:47:05;;;;;;;1.77;0.98;;;16.50;52.70;;;;;;5054093;28;20245;-61
2022/02/15 03:49:31;;;;;;;1.40;0.90;;;16.50;52.70;;;;;;5054333;28;20214;-62
2022/02/15 03:51:56;;;;;;;0.93;0.70;;;16.50;52.80;;;;;;5053555;28;20207;-62
2022/02/15 03:54:24;;;;;;;0.60;0.60;;;16.50;52.70;;;;;;5054201;28;20182;-63
2022/02/15 03:56:50;;;;;;;0.88;0.80;;;16.50;52.70;;;;;;5053344;28;20223;-63
2022/02/15 03:59:15;;;;;;;2.38;1.13;;;16.50;52.70;;;;;;5053855;28;20213;-61
2022/02/15 04:01:41;;;;;;;0.68;0.60;;;16.50;52.70;;;;;;5054173;28;20182;-62
2022/02/15 04:04:06;;;;;;;1.33;0.90;;;16.50;52.70;;;;;;5053054;28;20179;-61
2022/02/15 04:06:32;;;;;;;2.03;0.85;;;16.50;52.80;;;;;;5054062;28;20605;-61
2022/02/15 04:08:58;;;;;;;1.10;1.00;;;16.50;52.80;;;;;;5053686;28;20175;-62
2022/02/15 04:11:24;;;;;;;0.70;0.60;;;16.40;52.70;;;;;;5053327;28;20191;-62
2022/02/15 04:13:49;;;;;;;1.23;1.10;;;16.50;52.80;;;;;;5053888;28;20664;-64
2022/02/15 04:16:15;;;;;;;0.60;0.55;;;16.50;52.70;;;;;;5053731;28;20202;-64
2022/02/15 04:18:43;;;;;;;1.20;0.80;;;16.40;52.70;;;;;;5053035;28;20591;-63
2022/02/15 04:21:12;;;;;;;0.60;0.60;;;16.40;52.70;;;;;;5053708;28;20179;-63
2022/02/15 04:23:37;;;;;;;1.35;0.90;;;16.40;52.70;;;;;;5053961;28;20258;-63
2022/02/15 04:26:03;;;;;;;0.80;0.80;;;16.40;52.80;;;;;;5052642;28;20729;-62
2022/02/15 04:28:29;;;;;;;1.67;0.80;;;16.40;52.70;;;;;;5053607;28;20167;-61
2022/02/15 04:30:54;;;;;;;1.10;0.70;;;16.40;52.70;;;;;;5053268;28;20179;-62
2022/02/15 04:33:20;;;;;;;1.50;0.88;;;16.40;52.70;;;;;;5052836;28;20270;-61
2022/02/15 04:35:45;;;;;;;2.15;1.00;;;16.40;52.80;;;;;;5053752;28;20213;-61
2022/02/15 04:38:11;;;;;;;1.40;0.80;;;16.40;52.70;;;;;;5053108;28;20201;-62
2022/02/15 04:40:39;;;;;;;1.00;0.85;;;16.40;52.70;;;;;;5052194;28;20613;-62
2022/02/15 04:43:05;;;;;;;0.63;0.60;;;16.40;52.80;;;;;;5053134;28;20167;-62
2022/02/15 04:45:30;;;;;;;1.45;1.00;;;16.40;52.70;;;;;;5053151;28;20482;-61
2022/02/15 04:47:56;;;;;;;1.10;0.80;;;16.40;52.80;;;;;;5052243;28;20175;-61
2022/02/15 04:50:21;;;;;;;0.65;0.65;;;16.40;52.80;;;;;;5053386;28;20178;-62
2022/02/15 04:52:47;;;;;;;1.83;1.25;;;16.40;52.80;;;;;;5053407;28;20167;-63
2022/02/15 04:55:12;;;;;;;1.13;0.82;;;16.40;52.80;;;;;;5051966;28;20238;-64
2022/02/15 04:57:38;;;;;;;0.93;0.80;;;16.30;52.80;;;;;;5053105;28;20621;-62
2022/02/15 05:00:05;;;;;;;1.20;0.73;;;16.30;52.80;;;;;;5052169;28;20262;-62
2022/02/15 05:02:30;;;;;;;0.70;0.70;;;16.30;52.80;;;;;;5053407;28;20175;-61
2022/02/15 05:04:58;;;;;;;1.73;0.85;;;16.30;52.80;;;;;;5053042;28;20186;-62
2022/02/15 05:07:24;;;;;;;1.15;1.00;;;16.30;52.80;;;;;;5052297;28;20696;-62
2022/02/15 05:09:49;;;;;;;1.80;0.90;;;16.30;52.80;;;;;;5052986;28;20175;-63
2022/02/15 05:12:15;;;;;;;0.85;0.85;;;16.30;52.80;;;;;;5052732;28;20183;-64
2022/02/15 05:14:41;;;;;;;1.80;1.00;;;16.30;52.70;;;;;;5052213;28;20186;-65
2022/02/15 05:17:06;;;;;;;0.60;0.60;;;16.30;52.80;;;;;;5052517;28;20630;-64
2022/02/15 05:19:35;;;;;;;1.02;0.93;;;16.30;52.80;;;;;;5052845;28;20167;-63
2022/02/15 05:22:01;;;;;;;1.10;1.00;;;16.30;52.80;;;;;;5052044;28;20179;-62
2022/02/15 05:24:30;;;;;;;1.63;1.20;;;16.30;52.80;;;;;;5053149;28;20740;-62
2022/02/15 05:26:55;;;;;;;1.30;0.88;;;16.20;52.80;;;;;;5052901;28;20320;-62
2022/02/15 05:29:21;;;;;;;1.20;0.90;;;16.30;52.80;;;;;;5051920;28;20654;-60
2022/02/15 05:31:49;;;;;;;1.15;0.98;;;16.30;52.80;;;;;;5052577;28;20186;-61
2022/02/15 05:34:15;;;;;;;1.55;1.10;;;16.20;52.70;;;;;;5052525;28;20493;-61
2022/02/15 05:36:41;;;;;;;1.33;1.10;;;16.20;52.80;;;;;;5051865;28;20700;-61
2022/02/15 05:39:07;;;;;;;1.13;1.00;;;16.30;52.80;;;;;;5052328;28;20179;-61
2022/02/15 05:41:33;;;;;;;1.02;0.93;;;16.30;52.80;;;;;;5052515;28;20544;-61
2022/02/15 05:43:58;;;;;;;1.10;1.00;;;16.20;52.70;;;;;;5051313;28;20167;-62
2022/02/15 05:46:24;;;;;;;1.20;0.90;;;16.20;52.70;;;;;;5052482;28;20294;-61
2022/02/15 05:48:49;;;;;;;1.38;1.00;;;16.20;53.40;;;;;;5052593;28;20167;-61
2022/02/15 05:51:15;;;;;;;1.10;0.98;;;16.20;52.70;;;;;;5050566;28;20179;-62
2022/02/15 05:53:40;;;;;;;1.00;0.90;;;16.20;52.80;;;;;;5052177;28;20179;-62
2022/02/15 05:56:06;;;;;;;2.30;1.13;;;16.20;52.80;;;;;;5051665;28;20790;-62
2022/02/15 05:58:32;;;;;;;1.10;1.00;;;16.20;52.90;;;;;;5051525;28;20178;-61
2022/02/15 06:00:58;;;;;;;0.80;0.80;;;16.20;52.80;;;;;;5052276;28;20178;-61
2022/02/15 06:06:08;;;;;;;1.73;1.10;;;16.20;52.90;;;;;;5051804;28;20684;-61
2022/02/15 06:08:34;;;;;;;1.63;1.20;;;16.20;52.90;;;;;;5052237;28;20171;-62
2022/02/15 06:11:00;;;;;;;3.10;1.48;;;16.10;52.70;;;;;;5051286;28;20174;-62
2022/02/15 06:13:25;;;;;;;1.27;1.10;;;16.10;52.90;;;;;;5052371;28;20210;-61
2022/02/15 06:15:53;;;;;;;1.60;1.00;;;16.10;52.80;;;;;;5052237;28;20606;-63
2022/02/15 06:18:19;;;;;;;1.40;1.25;;;16.10;52.80;;;;;;5051232;28;20643;-62
2022/02/15 06:20:45;;;;;;;1.10;1.00;;;16.10;52.80;;;;;;5052129;28;20202;-62
2022/02/15 06:23:10;;;;;;;1.75;1.40;;;16.10;52.90;;;;;;5051830;28;20182;-61
2022/02/15 06:25:36;;;;;;;1.15;1.05;;;16.10;52.90;;;;;;5051212;28;20252;-60
2022/02/15 06:28:02;;;;;;;2.10;1.25;;;16.10;52.90;;;;;;5051892;28;20598;-61
2022/02/15 06:30:27;;;;;;;1.67;1.23;;;16.10;52.90;;;;;;5052166;28;20626;-60
2022/02/15 06:32:53;;;;;;;1.50;1.23;;;16.10;52.80;;;;;;5051118;28;20676;-61
2022/02/15 06:35:18;;;;;;;1.27;1.08;;;16.10;52.90;;;;;;5051946;28;20182;-60
2022/02/15 06:37:45;;;;;;;1.30;1.20;;;16.10;52.90;;;;;;5051940;28;20175;-61
2022/02/15 06:40:12;;;;;;;1.63;1.38;;;16.10;52.90;;;;;;5050647;28;20262;-61
2022/02/15 06:42:39;;;;;;;1.65;1.48;;;16.10;52.90;;;;;;5051901;28;20179;-60
2022/02/15 06:45:05;;;;;;;1.83;1.10;;;16.00;52.90;;;;;;5051667;28;20171;-59
2022/02/15 06:47:30;;;;;;;1.58;1.17;;;16.10;52.90;;;;;;5051088;28;20264;-60
2022/02/15 06:49:56;;;;;;;1.67;1.30;;;16.10;52.90;;;;;;5050839;28;20179;-61
2022/02/15 06:52:21;;;;;;;2.03;1.10;;;16.10;52.80;;;;;;5051735;28;20182;-61
2022/02/15 06:54:47;;;;;;;2.00;1.40;;;16.10;53.00;;;;;;5050797;28;20179;-62
2022/02/15 06:57:12;;;;;;;1.95;1.38;;;16.10;52.90;;;;;;5051654;28;20179;-61
2022/02/15 06:59:38;;;;;;;1.38;1.27;;;16.00;52.80;;;;;;5050981;28;20210;-60
2022/02/15 07:02:03;;;;;;;1.35;1.00;;;16.00;52.80;;;;;;5051267;28;20457;-60
2022/02/15 07:04:29;;;;;;;1.17;1.02;;;16.00;53.00;;;;;;5055192;28;20167;-60
2022/02/15 07:06:55;;;;;;;1.40;1.30;;;16.10;53.00;;;;;;5054496;28;20211;-61
2022/02/15 07:09:22;;;;;;;1.40;1.30;;;16.10;53.00;;;;;;5055459;28;20189;-62
2022/02/15 07:11:47;;;;;;;1.23;1.13;;;16.10;53.00;;;;;;5055533;28;20209;-64
2022/02/15 07:14:13;;;;;;;1.45;1.13;;;16.20;53.00;;;;;;5054198;28;20654;-63
2022/02/15 07:16:38;;;;;;;1.27;1.00;;;16.20;53.00;;;;;;5054696;28;20194;-64
2022/02/15 07:19:04;;;;;;;1.42;1.08;;;16.30;53.10;;;;;;5054969;28;20176;-63
2022/02/15 07:21:31;;;;;;;1.00;0.90;;;16.40;53.00;;;;;;5054585;28;20605;-61
2022/02/15 07:23:57;;;;;;;1.27;1.00;;;16.40;52.80;;;;;;5054867;28;20197;-63
2022/02/15 07:26:23;;;;;;;3.70;1.00;;;16.50;52.80;;;;;;5055413;28;20218;-60
2022/02/15 07:28:48;;;;;;;1.15;0.93;;;16.60;52.60;;;;;;5054896;28;20168;-61
2022/02/15 07:31:17;;;;;;;1.25;0.90;;;16.70;52.50;;;;;;5055009;28;20167;-61
2022/02/15 07:33:42;;;;;;;1.20;0.95;;;16.80;52.50;;;;;;5055098;28;20549;-61
2022/02/15 07:36:08;;;;;;;1.20;0.90;;;16.80;52.40;;;;;;5053986;28;20183;-61
2022/02/15 07:38:33;;;;;;;0.95;0.90;;;16.80;52.30;;;;;;5055135;28;20175;-62
2022/02/15 07:40:59;;;;;;;1.17;0.95;;;16.90;52.20;;;;;;5054690;28;20184;-61
2022/02/15 07:43:27;;;;;;;1.10;1.00;;;17.10;52.80;;;;;;5054195;28;20172;-61
2022/02/15 07:45:53;;;;;;;1.35;1.00;;;17.30;52.00;;;;;;5054927;28;20536;-60
2022/02/15 07:48:18;;;;;;;1.45;1.00;;;17.50;51.70;;;;;;5054730;28;20185;-61
2022/02/15 07:50:44;;;;;;;0.88;0.85;;;17.70;51.30;;;;;;5054016;28;20266;-68
2022/02/15 07:53:10;;;;;;;1.35;1.00;;;17.90;51.10;;;;;;5054535;28;20195;-69
2022/02/15 07:55:35;;;;;;;3.78;1.02;;;17.90;51.00;;;;;;5054477;28;20557;-70
2022/02/15 07:58:01;;;;;;;2.40;1.02;;;18.00;51.30;;;;;;5053918;28;20533;-68
2022/02/15 08:00:27;;;;;;;3.13;1.17;;;18.10;51.50;;;;;;5054675;28;20517;-71
2022/02/15 08:02:53;;;;;;;4.78;1.45;;;18.10;51.70;;;;;;5053865;28;20171;-71
2022/02/15 08:05:20;;;;;;;2.60;1.38;;;18.10;51.70;;;;;;5054617;28;20652;-72
2022/02/15 08:07:50;;;;;;;3.60;1.30;;;18.20;51.80;;;;;;5036485;28;20237;-70
2022/02/15 08:10:18;;;;;;;4.15;1.30;;;18.20;51.80;;;;;;5053468;28;20190;-70
2022/02/15 08:12:47;;;;;;;6.35;1.60;;;18.20;52.00;;;;;;5054473;28;20210;-67
2022/02/15 08:15:13;;;;;;;4.05;1.40;;;18.30;52.20;;;;;;5052872;28;20183;-66
2022/02/15 08:17:38;;;;;;;3.75;1.50;;;18.30;51.90;;;;;;5053313;28;20179;-65
2022/02/15 08:20:04;;;;;;;2.95;1.27;;;18.30;51.90;;;;;;5053760;28;20185;-67
2022/02/15 08:22:30;;;;;;;2.95;1.20;;;18.30;52.20;;;;;;5054156;28;20638;-66
2022/02/15 08:24:55;;;;;;;4.07;1.50;;;18.30;52.10;;;;;;5052978;28;20241;-65
2022/02/15 08:27:21;;;;;;;2.67;1.10;;;18.30;52.00;;;;;;5054045;28;20211;-67
2022/02/15 08:29:46;;;;;;;2.17;1.08;;;18.30;52.00;;;;;;5053947;28;20184;-67
2022/02/15 08:32:12;;;;;;;1.92;1.02;;;18.30;51.90;;;;;;5052794;28;20549;-67
2022/02/15 08:34:38;;;;;;;2.65;1.40;;;18.40;51.90;;;;;;5053762;28;20190;-68
2022/02/15 08:37:03;;;;;;;3.67;1.45;;;18.40;51.70;;;;;;5053367;28;20530;-67
2022/02/15 08:39:29;;;;;;;1.85;1.08;;;18.30;52.30;;;;;;5052956;28;20167;-67
2022/02/15 08:41:55;;;;;;;2.92;1.48;;;18.40;51.60;;;;;;5053354;28;20179;-67
2022/02/15 08:44:20;;;;;;;2.65;1.35;;;18.50;51.60;;;;;;5053540;28;20177;-67
2022/02/15 08:46:46;;;;;;;2.58;1.17;;;18.50;51.50;;;;;;5052783;28;20207;-66
2022/02/15 08:49:11;;;;;;;2.92;1.25;;;18.50;51.40;;;;;;5053224;28;20179;-67
2022/02/15 08:51:38;;;;;;;4.65;1.50;;;18.50;51.40;;;;;;5053397;28;20190;-66
2022/02/15 08:54:05;;;;;;;9.13;1.48;;;18.50;51.30;;;;;;5052693;28;20170;-67
2022/02/15 08:56:30;;;;;;;2.28;1.05;;;18.50;51.30;;;;;;5053274;28;20318;-67
2022/02/15 08:58:56;;;;;;;3.22;1.52;;;18.50;51.30;;;;;;5053232;28;20220;-67
2022/02/15 09:01:22;;;;;;;1.83;1.20;;;18.50;51.20;;;;;;5052421;28;20205;-68
2022/02/15 09:03:47;;;;;;;2.08;1.50;;;18.50;51.20;;;;;;5053055;28;20652;-67
2022/02/15 09:06:13;;;;;;;1.67;1.10;;;18.50;51.20;;;;;;5051888;28;20210;-68
2022/02/15 09:08:38;;;;;;;3.53;1.27;;;18.50;51.20;;;;;;5053167;28;20175;-67
2022/02/15 09:11:04;;;;;;;1.25;1.13;;;18.50;51.30;;;;;;5052984;28;20171;-67
2022/02/15 09:13:30;;;;;;;2.38;1.00;;;18.50;51.30;;;;;;5052427;28;20205;-67
2022/02/15 09:15:56;;;;;;;4.68;1.27;;;18.50;51.20;;;;;;5052610;28;20634;-66
2022/02/15 09:18:21;;;;;;;1.67;1.02;;;18.50;51.10;;;;;;5052940;28;20267;-66
2022/02/15 09:20:48;;;;;;;2.38;0.90;;;18.50;51.10;;;;;;5052281;28;20626;-65
2022/02/15 09:23:14;;;;;;;2.67;1.20;;;18.60;51.80;;;;;;5053021;28;20203;-65
2022/02/15 09:25:39;;;;;;;1.52;1.20;;;18.60;51.20;;;;;;5052819;28;20202;-67
2022/02/15 09:28:05;;;;;;;2.05;1.00;;;18.50;51.10;;;;;;5052131;28;20651;-67
2022/02/15 09:30:31;;;;;;;3.28;1.35;;;18.50;51.10;;;;;;5052642;28;20483;-68
2022/02/15 09:32:59;;;;;;;3.13;0.93;;;18.50;51.10;;;;;;5052282;28;20187;-68
2022/02/15 09:35:24;;;;;;;2.75;1.02;;;18.50;51.10;;;;;;5051594;28;20626;-68
2022/02/15 09:37:50;;;;;;;2.65;1.40;;;18.40;51.20;;;;;;5052283;28;20179;-67
2022/02/15 09:40:15;;;;;;;2.63;1.08;;;18.50;51.20;;;;;;5052120;28;20261;-67
2022/02/15 09:42:41;;;;;;;1.35;0.90;;;18.50;51.20;;;;;;5051857;28;20171;-67
2022/02/15 09:45:08;;;;;;;3.03;0.85;;;18.50;51.10;;;;;;5052271;28;20305;-66
2022/02/15 09:47:34;;;;;;;3.72;1.30;;;18.60;51.20;;;;;;5052087;28;20215;-66
2022/02/15 09:50:01;;;;;;;2.42;1.20;;;18.60;51.30;;;;;;5051042;28;20179;-68
2022/02/15 09:52:27;;;;;;;3.53;1.45;;;18.50;51.40;;;;;;5034571;28;20576;-68
2022/02/15 09:54:55;;;;;;;3.08;1.27;;;18.60;51.30;;;;;;5051869;28;20225;-68
2022/02/15 09:57:21;;;;;;;2.28;1.05;;;18.60;51.30;;;;;;5051415;28;20653;-68
2022/02/15 09:59:47;;;;;;;3.25;1.38;;;18.60;51.60;;;;;;5051975;28;20533;-68
2022/02/15 10:02:24;;;;;;;4.00;1.30;;;18.60;51.50;;;;;;5051485;28;20186;-69
2022/02/15 10:04:53;;;;;;;4.63;1.15;;;18.50;51.80;;;;;;5052022;28;20175;-68
2022/02/15 10:07:19;;;;;;;1.52;0.98;;;18.40;51.80;;;;;;5051925;28;20233;-69
2022/02/15 10:09:51;;;;;;;0.85;0.80;;;18.30;52.10;;;;;;5051272;28;20541;-68
2022/02/15 10:12:17;;;;;;;3.25;1.10;;;18.30;52.30;;;;;;5051403;28;20552;-73
2022/02/15 10:14:43;;;;;;;2.55;1.10;;;18.20;52.40;;;;;;5051846;28;20273;-71
2022/02/15 10:17:12;;;;;;;1.95;1.30;;;18.10;52.60;;;;;;5050721;28;20194;-72
2022/02/15 10:19:40;;;;;;;3.30;1.10;;;18.10;52.70;;;;;;5051606;28;20541;-72
2022/02/15 10:22:06;;;;;;;1.65;1.20;;;18.10;52.50;;;;;;5033512;28;20187;-72
2022/02/15 10:24:40;;;;;;;4.65;1.50;;;18.20;52.20;;;;;;5051070;28;20246;-72
2022/02/15 10:27:11;;;;;;;1.73;1.15;;;18.20;52.10;;;;;;5051430;28;20270;-73
2022/02/15 10:29:42;;;;;;;2.25;1.00;;;18.10;52.20;;;;;;5051647;28;20186;-73
2022/02/15 10:32:13;;;;;;;3.80;1.35;;;18.10;52.30;;;;;;5050745;28;20260;-73
2022/02/15 10:35:05;;;;;;;4.75;1.23;;;18.00;52.30;;;;;;5051876;28;20483;-73
2022/02/15 10:37:32;;;;;;;2.47;1.13;;;18.00;52.20;;;;;;5049605;28;20188;-73
2022/02/15 10:40:05;;;;;;;2.83;1.30;;;18.30;52.40;;;;;;5055326;28;20250;-73
2022/02/15 10:42:31;;;;;;;2.60;1.30;;;18.10;52.10;;;;;;5055159;28;20488;-72
2022/02/15 10:45:02;;;;;;;2.83;1.58;;;18.10;51.80;;;;;;5055813;28;20171;-71
2022/02/15 10:47:29;;;;;;;2.97;1.35;;;18.20;51.80;;;;;;5055299;28;20211;-72
2022/02/15 10:49:56;;;;;;;2.38;1.10;;;18.20;51.70;;;;;;5055134;28;20529;-72
2022/02/15 10:52:21;;;;;;;2.50;1.10;;;18.20;51.80;;;;;;5065647;28;20652;-72
2022/02/15 10:54:47;;;;;;;3.70;1.30;;;18.20;51.80;;;;;;5075212;28;20170;-72
2022/02/15 10:57:14;;;;;;;2.65;1.30;;;18.30;51.80;;;;;;5075221;28;20226;-73
2022/02/15 10:59:43;;;;;;;2.13;1.00;;;18.30;51.80;;;;;;5073409;28;20190;-72
2022/02/15 11:02:20;;;;;;;2.72;1.20;;;18.30;51.70;;;;;;5055192;28;20175;-73
2022/02/15 11:04:49;;;;;;;4.07;1.20;;;18.30;51.90;;;;;;5055104;28;20183;-73
2022/02/15 11:07:16;;;;;;;3.70;1.27;;;18.20;52.00;;;;;;5054275;28;20309;-74
2022/02/15 11:10:02;;;;;;;1.70;0.75;;;18.20;51.90;;;;;;5054996;28;20171;-72
2022/02/15 11:12:35;;;;;;;3.05;1.20;;;18.20;52.00;;;;;;5055177;28;20510;-72
2022/02/15 11:15:02;;;;;;;1.67;1.00;;;18.20;52.00;;;;;;5036791;28;20595;-72
2022/02/15 11:17:28;;;;;;;1.73;1.10;;;18.20;52.00;;;;;;5061884;28;20224;-72
2022/02/15 11:20:06;;;;;;;2.50;1.30;;;18.10;52.10;;;;;;5073044;28;20170;-72
2022/02/15 11:23:07;;;;;;;1.80;1.10;;;18.10;52.70;;;;;;5075027;28;20186;-69
2022/02/15 11:25:34;;;;;;;1.25;0.90;;;18.10;52.30;;;;;;5069634;28;20213;-68
2022/02/15 11:28:06;;;;;;;2.15;1.23;;;18.00;52.20;;;;;;5073882;28;20257;-69
2022/02/15 11:31:00;;;;;;;2.75;1.10;;;18.00;52.30;;;;;;5074870;28;20316;-70
2022/02/15 11:33:26;;;;;;;3.20;1.20;;;18.00;52.40;;;;;;5064604;28;20179;-70
2022/02/15 11:36:06;;;;;;;1.85;0.90;;;17.90;52.50;;;;;;5074384;28;20502;-68
2022/02/15 11:38:31;;;;;;;2.40;1.10;;;18.00;52.50;;;;;;5074643;28;20174;-70
2022/02/15 11:41:07;;;;;;;2.67;0.90;;;18.00;52.30;;;;;;5073649;28;20181;-66
2022/02/15 11:43:34;;;;;;;3.05;1.33;;;18.10;52.20;;;;;;5074667;28;20224;-67
2022/02/15 11:46:01;;;;;;;3.10;1.15;;;18.10;52.00;;;;;;5073941;28;20215;-67
2022/02/15 11:48:42;;;;;;;1.40;1.08;;;18.30;51.90;;;;;;5073276;28;20221;-67
2022/02/15 11:51:21;;;;;;;3.33;1.10;;;18.30;51.80;;;;;;5070941;28;20171;-66
2022/02/15 11:53:47;;;;;;;3.45;1.20;;;18.30;51.80;;;;;;5054521;28;20301;-65
2022/02/15 11:56:14;;;;;;;1.73;1.15;;;18.30;51.80;;;;;;5053178;28;20250;-67
2022/02/15 11:58:46;;;;;;;1.08;0.98;;;18.30;52.00;;;;;;5054047;28;20176;-68
2022/02/15 12:01:25;;;;;;;3.13;1.05;;;18.30;52.00;;;;;;5053804;28;20187;-64
2022/02/15 12:03:52;;;;;;;5.38;1.27;;;18.30;51.90;;;;;;5053588;28;20207;-72
2022/02/15 12:06:18;;;;;;;1.58;0.90;;;18.30;51.80;;;;;;5054021;28;20206;-73
2022/02/15 12:08:54;;;;;;;2.88;1.13;;;18.20;51.80;;;;;;5054029;28;20191;-72
2022/02/15 12:11:35;;;;;;;2.92;1.02;;;18.20;51.90;;;;;;5053194;28;20207;-72
2022/02/15 12:14:17;;;;;;;3.40;1.10;;;18.20;51.90;;;;;;5053701;28;20210;-68
2022/02/15 12:16:46;;;;;;;5.28;1.35;;;18.20;52.00;;;;;;5053077;28;20643;-68
2022/02/15 12:19:32;;;;;;;2.95;1.00;;;18.20;52.00;;;;;;5053482;28;20530;-67
2022/02/15 12:21:59;;;;;;;3.42;1.20;;;18.20;52.00;;;;;;5053150;28;20173;-68
2022/02/15 12:24:25;;;;;;;2.47;1.10;;;18.20;52.10;;;;;;5053099;28;20178;-68
2022/02/15 12:26:50;;;;;;;3.28;0.98;;;18.20;52.10;;;;;;5053621;28;20235;-68
2022/02/15 12:29:16;;;;;;;1.95;1.05;;;18.20;52.00;;;;;;5053688;28;20324;-69
2022/02/15 12:31:42;;;;;;;3.47;1.42;;;18.20;52.10;;;;;;5058805;28;20566;-69
2022/02/15 12:34:12;;;;;;;1.67;1.02;;;18.30;52.00;;;;;;5061836;28;20167;-69
2022/02/15 12:36:37;;;;;;;2.92;1.02;;;18.30;52.00;;;;;;5061667;28;20197;-69
2022/02/15 12:39:04;;;;;;;2.63;1.05;;;18.20;52.00;;;;;;5062972;28;20170;-68
2022/02/15 12:41:37;;;;;;;3.25;1.00;;;18.20;52.10;;;;;;5063920;28;20236;-69
2022/02/15 12:44:03;;;;;;;2.83;0.90;;;18.20;52.10;;;;;;5061061;28;20175;-69
2022/02/15 12:46:28;;;;;;;2.10;1.65;;;18.20;52.10;;;;;;5060534;28;20257;-69
2022/02/15 12:48:58;;;;;;;5.20;1.33;;;18.20;52.10;;;;;;5052627;28;20574;-66
2022/02/15 12:51:23;;;;;;;1.58;1.25;;;18.30;52.10;;;;;;5057810;28;20170;-66
2022/02/15 12:53:52;;;;;;;3.33;1.33;;;18.20;52.10;;;;;;5055221;28;20171;-66